createdAt,value
2023-05-10T00:01:26.162Z,71.37
2023-05-10T00:03:52.782Z,72.00
2023-05-10T00:06:19.486Z,72.10
2023-05-10T00:08:46.412Z,72.17
2023-05-10T00:11:14.532Z,71.72
2023-05-10T00:13:42.415Z,71.82
2023-05-10T00:16:08.999Z,71.69
2023-05-10T00:18:35.805Z,71.79
2023-05-10T00:21:02.362Z,71.83
2023-05-10T00:23:28.983Z,71.40
2023-05-10T00:25:55.523Z,71.49
2023-05-10T00:28:23.797Z,71.34
2023-05-10T00:30:50.467Z,71.16
2023-05-10T00:33:17.100Z,71.22
2023-05-10T00:35:43.656Z,71.22
2023-05-10T00:38:10.246Z,71.17
2023-05-10T00:40:37.040Z,71.66
2023-05-10T00:43:03.633Z,71.53
2023-05-10T00:45:32.791Z,71.13
2023-05-10T00:48:00.002Z,71.49
2023-05-10T00:50:26.882Z,71.27
2023-05-10T00:52:53.733Z,71.28
2023-05-10T00:55:20.815Z,72.14
2023-05-10T00:57:48.088Z,71.99
2023-05-10T01:00:15.667Z,71.62
2023-05-10T01:02:43.824Z,71.76
2023-05-10T01:05:13.427Z,72.26
2023-05-10T01:07:40.735Z,71.79
2023-05-10T01:10:08.961Z,72.17
2023-05-10T01:12:38.039Z,71.97
2023-05-10T01:15:06.374Z,72.45
2023-05-10T01:17:34.044Z,71.48
2023-05-10T01:20:02.373Z,71.69
2023-05-10T01:23:01.105Z,71.61
2023-05-10T01:26:01.649Z,71.80
2023-05-10T01:28:48.674Z,72.04
2023-05-10T01:31:38.919Z,72.16
2023-05-10T01:34:10.211Z,72.57
2023-05-10T01:36:52.298Z,72.34
2023-05-10T01:39:25.505Z,72.33
2023-05-10T01:41:56.661Z,72.43
2023-05-10T01:44:32.210Z,71.86
2023-05-10T01:47:04.049Z,72.41
2023-05-10T01:49:36.000Z,71.96
2023-05-10T01:52:09.317Z,71.67
2023-05-10T01:54:39.396Z,72.23
2023-05-10T01:57:09.978Z,72.09
2023-05-10T01:59:39.085Z,71.59
2023-05-10T02:02:06.951Z,71.63
2023-05-10T02:04:38.090Z,71.99
2023-05-10T02:07:05.754Z,71.77
2023-05-10T02:09:34.485Z,71.51
2023-05-10T02:12:03.449Z,71.11
2023-05-10T02:14:33.349Z,71.47
2023-05-10T02:17:02.049Z,71.37
2023-05-10T02:19:29.913Z,71.74
2023-05-10T02:21:59.834Z,71.87
2023-05-10T02:24:27.289Z,71.07
2023-05-10T02:26:56.084Z,71.25
2023-05-10T02:29:43.085Z,71.21
2023-05-10T02:32:12.337Z,71.05
2023-05-10T02:34:40.344Z,71.07
2023-05-10T02:37:09.348Z,70.75
2023-05-10T02:39:36.386Z,71.07
2023-05-10T02:42:03.494Z,70.95
2023-05-10T02:44:30.640Z,70.79
2023-05-10T02:46:57.359Z,70.87
2023-05-10T02:49:23.981Z,70.97
2023-05-10T02:51:56.418Z,70.70
2023-05-10T02:54:30.401Z,71.00
2023-05-10T02:57:00.131Z,70.71
2023-05-10T02:59:26.737Z,70.58
2023-05-10T03:01:53.359Z,71.38
2023-05-10T03:04:20.110Z,71.43
2023-05-10T03:06:47.139Z,71.16
2023-05-10T03:09:14.136Z,71.03
2023-05-10T03:11:50.811Z,70.73
2023-05-10T03:14:26.619Z,70.87
2023-05-10T03:17:01.360Z,70.86
2023-05-10T03:19:33.276Z,70.41
2023-05-10T03:22:06.022Z,70.42
2023-05-10T03:24:36.191Z,70.71
2023-05-10T03:27:05.453Z,70.49
2023-05-10T03:29:32.770Z,70.38
2023-05-10T03:31:59.750Z,70.49
2023-05-10T03:34:26.803Z,70.37
2023-05-10T03:36:53.360Z,70.11
2023-05-10T03:39:20.163Z,70.46
2023-05-10T03:41:46.733Z,70.40
2023-05-10T03:44:14.665Z,70.48
2023-05-10T03:46:41.229Z,70.79
2023-05-10T03:49:07.831Z,70.53
2023-05-10T03:51:34.550Z,70.77
2023-05-10T03:54:01.070Z,70.84
2023-05-10T03:56:27.785Z,70.77
2023-05-10T03:58:54.444Z,70.73
2023-05-10T04:01:22.404Z,70.54
2023-05-10T04:03:49.121Z,70.94
2023-05-10T04:06:15.756Z,71.08
2023-05-10T04:08:42.290Z,71.00
2023-05-10T04:11:10.248Z,70.42
2023-05-10T04:13:36.896Z,70.61
2023-05-10T04:16:04.098Z,70.69
2023-05-10T04:18:32.077Z,71.24
2023-05-10T04:20:58.753Z,71.32
2023-05-10T04:23:25.495Z,71.43
2023-05-10T04:25:52.191Z,70.85
2023-05-10T04:28:18.814Z,70.64
2023-05-10T04:30:45.693Z,70.77
2023-05-10T04:33:12.316Z,71.16
2023-05-10T04:35:40.325Z,70.48
2023-05-10T04:38:06.896Z,70.54
2023-05-10T04:40:33.575Z,71.31
2023-05-10T04:43:00.188Z,70.53
2023-05-10T04:45:26.764Z,70.79
2023-05-10T04:47:53.409Z,70.67
2023-05-10T04:50:20.166Z,70.51
2023-05-10T04:52:48.504Z,70.73
2023-05-10T04:55:15.284Z,70.66
2023-05-10T04:57:41.877Z,70.99
2023-05-10T05:00:09.569Z,70.75
2023-05-10T05:02:36.267Z,70.98
2023-05-10T05:05:02.950Z,70.80
2023-05-10T05:07:29.521Z,70.37
2023-05-10T05:09:57.529Z,70.26
2023-05-10T05:12:24.110Z,70.61
2023-05-10T05:14:50.664Z,70.53
2023-05-10T05:17:17.232Z,69.92
2023-05-10T05:19:43.668Z,70.73
2023-05-10T05:22:10.300Z,69.65
2023-05-10T05:24:37.333Z,69.64
2023-05-10T05:27:05.278Z,68.72
2023-05-10T05:29:31.889Z,68.73
2023-05-10T05:31:59.076Z,68.49
2023-05-10T05:34:25.786Z,68.93
2023-05-10T05:36:52.335Z,68.51
2023-05-10T05:39:19.102Z,68.60
2023-05-10T05:41:45.664Z,68.35
2023-05-10T05:44:14.117Z,68.61
2023-05-10T05:46:40.692Z,67.71
2023-05-10T05:49:07.339Z,67.29
2023-05-10T05:51:33.961Z,67.61
2023-05-10T05:54:00.678Z,67.59
2023-05-10T05:56:27.264Z,67.49
2023-05-10T05:58:54.090Z,67.08
2023-05-10T06:01:22.137Z,66.82
2023-05-10T06:03:49.764Z,67.03
2023-05-10T06:06:17.563Z,66.79
2023-05-10T06:08:43.970Z,67.16
2023-05-10T06:11:10.506Z,67.29
2023-05-10T06:13:37.072Z,67.63
2023-05-10T06:16:03.807Z,67.43
2023-05-10T06:18:31.737Z,67.65
2023-05-10T06:20:58.413Z,67.15
2023-05-10T06:23:25.368Z,67.02
2023-05-10T06:25:52.220Z,66.99
2023-05-10T06:28:18.916Z,67.28
2023-05-10T06:30:45.529Z,67.00
2023-05-10T06:33:12.189Z,68.03
2023-05-10T06:35:40.365Z,67.78
2023-05-10T06:38:06.934Z,67.53
2023-05-10T06:40:33.564Z,66.91
2023-05-10T06:43:00.166Z,66.36
2023-05-10T06:45:26.721Z,65.99
2023-05-10T06:47:53.401Z,65.49
2023-05-10T06:50:20.072Z,65.71
2023-05-10T06:52:48.261Z,65.89
2023-05-10T06:55:15.292Z,65.81
2023-05-10T06:57:42.071Z,66.11
2023-05-10T07:00:09.310Z,65.95
2023-05-10T07:02:36.151Z,65.95
2023-05-10T07:05:03.576Z,66.69
2023-05-10T07:07:30.354Z,66.89
2023-05-10T07:09:58.438Z,67.62
2023-05-10T07:12:25.281Z,67.81
2023-05-10T07:14:51.883Z,67.70
2023-05-10T07:17:18.652Z,67.90
2023-05-10T07:19:45.296Z,67.84
2023-05-10T07:22:11.934Z,66.59
2023-05-10T07:24:38.572Z,66.69
2023-05-10T07:27:06.649Z,66.25
2023-05-10T07:29:33.619Z,65.51
2023-05-10T07:32:00.297Z,64.49
2023-05-10T07:34:26.944Z,63.10
2023-05-10T07:36:53.976Z,62.43
2023-05-10T07:39:26.707Z,61.21
2023-05-10T07:41:54.686Z,60.85
2023-05-10T07:44:22.713Z,60.89
2023-05-10T07:46:49.447Z,61.57
2023-05-10T07:49:16.278Z,61.99
2023-05-10T07:51:42.975Z,63.10
2023-05-10T07:54:09.595Z,62.50
2023-05-10T07:56:36.282Z,62.74
2023-05-10T07:59:04.244Z,63.76
2023-05-10T08:01:34.462Z,62.90
2023-05-10T08:04:01.873Z,62.21
2023-05-10T08:06:28.771Z,61.94
2023-05-10T08:08:55.235Z,61.01
2023-05-10T08:11:21.841Z,60.19
2023-05-10T08:13:49.915Z,59.58
2023-05-10T08:16:16.846Z,58.86
2023-05-10T08:18:45.779Z,60.16
2023-05-10T08:21:12.539Z,60.66
2023-05-10T08:23:39.176Z,61.28
2023-05-10T08:26:05.891Z,62.26
2023-05-10T08:28:32.629Z,63.44
2023-05-10T08:30:59.297Z,63.34
2023-05-10T08:33:28.062Z,63.22
2023-05-10T08:35:55.926Z,62.57
2023-05-10T08:38:22.628Z,62.07
2023-05-10T08:40:50.758Z,61.07
2023-05-10T08:43:17.696Z,60.24
2023-05-10T08:45:45.591Z,58.77
2023-05-10T08:48:12.393Z,57.53
2023-05-10T08:50:43.691Z,56.60
2023-05-10T08:53:13.139Z,55.15
2023-05-10T08:55:40.788Z,53.72
2023-05-10T08:58:07.781Z,51.91
2023-05-10T09:00:34.885Z,49.96
2023-05-10T09:03:03.860Z,50.63
2023-05-10T09:05:30.556Z,50.59
2023-05-10T09:07:57.150Z,52.60
2023-05-10T09:10:26.743Z,53.24
2023-05-10T09:12:54.345Z,52.98
2023-05-10T09:15:21.130Z,51.56
2023-05-10T09:17:50.113Z,51.57
2023-05-10T09:20:16.882Z,51.07
2023-05-10T09:22:43.528Z,51.66
2023-05-10T09:25:12.498Z,53.09
2023-05-10T09:27:41.558Z,55.37
2023-05-10T09:30:09.836Z,57.10
2023-05-10T09:32:40.817Z,59.37
2023-05-10T09:35:08.858Z,58.68
2023-05-10T09:37:35.550Z,59.22
2023-05-10T09:40:05.776Z,58.26
2023-05-10T09:42:32.372Z,58.18
2023-05-10T09:45:03.461Z,56.47
2023-05-10T09:47:30.085Z,55.94
2023-05-10T09:49:58.761Z,55.54
2023-05-10T09:52:25.350Z,53.85
2023-05-10T09:54:54.551Z,54.52
2023-05-10T09:57:22.180Z,54.83
2023-05-10T09:59:49.176Z,54.44
2023-05-10T10:02:17.443Z,54.43
2023-05-10T10:04:44.221Z,55.03
2023-05-10T10:07:10.867Z,53.99
2023-05-10T10:09:37.512Z,53.84
2023-05-10T10:12:04.933Z,53.17
2023-05-10T10:14:31.667Z,52.15
2023-05-10T10:19:34.248Z,51.62
2023-05-10T10:22:01.312Z,51.49
2023-05-10T10:24:28.080Z,49.99
2023-05-10T10:26:58.230Z,49.93
2023-05-10T10:29:32.255Z,48.86
2023-05-10T10:32:10.285Z,48.67
2023-05-10T10:34:40.386Z,48.95
2023-05-10T10:37:08.362Z,50.26
2023-05-10T10:39:34.957Z,52.48
2023-05-10T10:42:01.604Z,54.17
2023-05-10T10:44:36.593Z,54.90
2023-05-10T10:47:06.042Z,55.54
2023-05-10T10:49:33.569Z,54.92
2023-05-10T10:52:33.296Z,54.03
2023-05-10T10:55:02.254Z,53.70
2023-05-10T10:57:29.525Z,54.06
2023-05-10T11:00:30.281Z,54.81
2023-05-10T11:03:03.509Z,54.42
2023-05-10T11:05:41.538Z,53.24
2023-05-10T11:08:20.290Z,53.38
2023-05-10T11:10:55.254Z,53.16
2023-05-10T11:13:30.100Z,52.82
2023-05-10T11:15:57.293Z,51.94
2023-05-10T11:18:26.288Z,50.79
2023-05-10T11:20:53.803Z,49.24
2023-05-10T11:23:23.497Z,47.81
2023-05-10T11:25:50.484Z,47.49
2023-05-10T11:28:18.910Z,45.95
2023-05-10T11:30:46.260Z,44.66
2023-05-10T11:33:17.212Z,44.26
2023-05-10T11:35:44.015Z,44.16
2023-05-10T11:38:12.005Z,45.59
2023-05-10T11:40:40.680Z,46.34
2023-05-10T11:43:09.236Z,48.07
2023-05-10T11:45:36.170Z,49.27
2023-05-10T11:48:04.021Z,50.16
2023-05-10T11:50:30.771Z,51.30
2023-05-10T11:52:58.173Z,52.37
2023-05-10T11:55:25.056Z,52.83
2023-05-10T11:57:55.143Z,52.46
2023-05-10T12:00:22.210Z,50.23
2023-05-10T12:02:49.451Z,47.73
2023-05-10T12:05:16.320Z,46.94
2023-05-10T12:07:42.939Z,47.77
2023-05-10T12:10:10.986Z,47.85
2023-05-10T12:12:41.646Z,49.12
2023-05-10T12:15:12.057Z,49.52
2023-05-10T12:17:40.702Z,49.13
2023-05-10T12:20:16.274Z,47.34
2023-05-10T12:22:45.937Z,46.51
2023-05-10T12:25:12.578Z,46.87
2023-05-10T12:27:39.264Z,47.37
2023-05-10T12:30:07.138Z,46.71
2023-05-10T12:32:42.326Z,46.80
2023-05-10T12:35:09.360Z,45.70
2023-05-10T12:37:36.347Z,45.58
2023-05-10T12:40:03.137Z,45.94
2023-05-10T12:42:29.888Z,44.94
2023-05-10T12:44:57.127Z,43.45
2023-05-10T12:47:23.694Z,43.36
2023-05-10T12:49:51.690Z,42.30
2023-05-10T12:52:18.317Z,42.25
2023-05-10T12:54:44.958Z,40.99
2023-05-10T12:57:11.568Z,40.43
2023-05-10T12:59:38.416Z,40.99
2023-05-10T13:02:05.305Z,40.14
2023-05-10T13:04:32.014Z,40.21
2023-05-10T13:07:00.137Z,39.74
2023-05-10T13:09:28.620Z,39.62
2023-05-10T13:11:55.201Z,39.83
2023-05-10T13:14:21.956Z,40.18
2023-05-10T13:16:48.779Z,40.55
2023-05-10T13:19:16.558Z,40.04
2023-05-10T13:21:43.309Z,40.37
2023-05-10T13:24:11.466Z,40.81
2023-05-10T13:26:38.162Z,41.02
2023-05-10T13:29:04.717Z,41.12
2023-05-10T13:31:31.393Z,42.43
2023-05-10T13:33:58.021Z,42.78
2023-05-10T13:36:24.634Z,44.15
2023-05-10T13:38:51.260Z,44.49
2023-05-10T13:41:19.236Z,43.43
2023-05-10T13:43:45.795Z,44.73
2023-05-10T13:46:12.434Z,43.86
2023-05-10T13:48:39.280Z,43.50
2023-05-10T13:51:05.981Z,43.79
2023-05-10T13:53:32.556Z,44.35
2023-05-10T13:56:02.027Z,45.65
2023-05-10T13:58:30.004Z,44.51
2023-05-10T14:04:18.385Z,44.33
2023-05-10T14:06:44.961Z,44.43
2023-05-10T14:09:11.540Z,43.89
2023-05-10T14:11:38.115Z,42.82
2023-05-10T14:14:06.042Z,43.71
2023-05-10T14:16:32.655Z,43.91
2023-05-10T14:18:59.269Z,45.56
2023-05-10T14:21:25.985Z,46.85
2023-05-10T14:23:52.536Z,46.40
2023-05-10T14:26:19.113Z,47.28
2023-05-10T14:28:45.755Z,47.13
2023-05-10T14:31:13.856Z,47.39
2023-05-10T14:33:40.533Z,45.72
2023-05-10T14:36:07.752Z,45.94
2023-05-10T14:38:34.176Z,45.55
2023-05-10T14:41:00.766Z,45.70
2023-05-10T14:43:27.439Z,46.36
2023-05-10T14:45:55.520Z,46.59
2023-05-10T14:48:23.530Z,47.18
2023-05-10T14:50:50.094Z,47.51
2023-05-10T14:53:16.686Z,47.47
2023-05-10T14:55:43.456Z,48.19
2023-05-10T14:58:10.033Z,48.96
2023-05-10T15:00:41.572Z,49.03
2023-05-10T15:03:08.669Z,50.15
2023-05-10T15:05:39.781Z,50.02
2023-05-10T15:08:06.443Z,49.89
2023-05-10T15:10:34.364Z,49.50
2023-05-10T15:13:01.412Z,50.25
2023-05-10T15:15:28.000Z,49.77
2023-05-10T15:17:54.589Z,49.23
2023-05-10T15:20:21.232Z,49.83
2023-05-10T15:22:49.176Z,48.83
2023-05-10T15:25:15.859Z,49.11
2023-05-10T15:27:42.741Z,48.16
2023-05-10T15:30:10.395Z,48.16
2023-05-10T15:32:36.959Z,47.54
2023-05-10T15:35:03.813Z,48.16
2023-05-10T15:37:32.963Z,48.07
2023-05-10T15:40:01.329Z,48.14
2023-05-10T15:42:27.885Z,47.46
2023-05-10T15:44:54.474Z,48.84
2023-05-10T15:47:21.121Z,49.73
2023-05-10T15:49:48.103Z,49.32
2023-05-10T15:52:14.677Z,48.71
2023-05-10T15:54:41.405Z,47.54
2023-05-10T15:57:09.343Z,47.56
2023-05-10T15:59:35.894Z,47.61
2023-05-10T16:02:02.581Z,47.11
2023-05-10T16:04:29.145Z,48.24
2023-05-10T16:06:55.810Z,47.31
2023-05-10T16:09:22.407Z,47.60
2023-05-10T16:11:49.041Z,47.35
2023-05-10T16:14:16.970Z,47.36
2023-05-10T16:16:43.643Z,47.56
2023-05-10T16:19:10.276Z,48.63
2023-05-10T16:21:36.926Z,48.54
2023-05-10T16:24:03.820Z,48.61
2023-05-10T16:26:30.481Z,49.59
2023-05-10T16:28:57.148Z,51.12
2023-05-10T16:31:25.102Z,51.48
2023-05-10T16:33:51.835Z,50.85
2023-05-10T16:36:18.683Z,51.47
2023-05-10T16:38:45.242Z,50.56
2023-05-10T16:41:11.812Z,50.50
2023-05-10T16:43:38.402Z,51.12
2023-05-10T16:46:10.244Z,51.65
2023-05-10T16:48:38.440Z,52.16
2023-05-10T16:51:05.045Z,51.83
2023-05-10T16:53:31.893Z,53.27
2023-05-10T16:55:58.464Z,53.66
2023-05-10T16:58:25.111Z,55.48
2023-05-10T17:00:51.732Z,58.72
2023-05-10T17:03:18.666Z,58.80
2023-05-10T17:05:46.668Z,58.99
2023-05-10T17:08:13.126Z,59.51
2023-05-10T17:10:40.148Z,60.43
2023-05-10T17:13:08.117Z,61.12
2023-05-10T17:15:36.763Z,62.15
2023-05-10T17:18:03.516Z,62.49
2023-05-10T17:20:30.147Z,62.45
2023-05-10T17:22:58.110Z,62.32
2023-05-10T17:25:24.783Z,62.37
2023-05-10T17:27:51.403Z,62.52
2023-05-10T17:30:18.018Z,62.85
2023-05-10T17:32:44.711Z,63.61
2023-05-10T17:35:14.198Z,63.07
2023-05-10T17:37:40.855Z,62.53
2023-05-10T17:40:10.251Z,62.37
2023-05-10T17:42:36.820Z,62.54
2023-05-10T17:45:03.681Z,62.02
2023-05-10T17:47:31.552Z,62.51
2023-05-10T17:49:58.200Z,62.42
2023-05-10T17:52:24.805Z,62.54
2023-05-10T17:54:51.366Z,62.67
2023-05-10T17:57:19.344Z,63.93
2023-05-10T17:59:45.902Z,62.64
2023-05-10T18:02:13.267Z,63.03
2023-05-10T18:04:40.126Z,63.12
2023-05-10T18:07:06.995Z,62.91
2023-05-10T18:09:33.492Z,62.81
2023-05-10T18:12:01.710Z,63.19
2023-05-10T18:14:39.697Z,63.01
2023-05-10T18:17:07.572Z,63.58
2023-05-10T18:19:34.330Z,63.43
2023-05-10T18:22:00.913Z,63.75
2023-05-10T18:24:38.320Z,64.27
2023-05-10T18:27:06.092Z,64.37
2023-05-10T18:29:34.322Z,65.19
2023-05-10T18:32:00.881Z,66.06
2023-05-10T18:34:27.441Z,65.34
2023-05-10T18:36:54.097Z,65.71
2023-05-10T18:39:20.793Z,65.76
2023-05-10T18:41:47.494Z,66.89
2023-05-10T18:44:14.157Z,66.37
2023-05-10T18:46:42.300Z,66.97
2023-05-10T18:49:08.958Z,66.72
2023-05-10T18:51:35.650Z,67.39
2023-05-10T18:54:02.223Z,68.37
2023-05-10T18:56:28.793Z,67.77
2023-05-10T18:58:55.314Z,68.07
2023-05-10T19:01:21.868Z,68.53
2023-05-10T19:03:49.806Z,68.20
2023-05-10T19:06:16.388Z,68.11
2023-05-10T19:08:43.058Z,68.08
2023-05-10T19:11:09.618Z,67.92
2023-05-10T19:13:36.470Z,68.20
2023-05-10T19:16:04.707Z,68.55
2023-05-10T19:18:33.219Z,68.94
2023-05-10T19:21:02.140Z,68.87
2023-05-10T19:23:28.840Z,67.97
2023-05-10T19:25:55.394Z,68.67
2023-05-10T19:28:22.006Z,69.01
2023-05-10T19:30:48.664Z,68.61
2023-05-10T19:33:15.290Z,68.36
2023-05-10T19:35:41.943Z,68.25
2023-05-10T19:38:10.003Z,68.61
2023-05-10T19:40:36.571Z,68.31
2023-05-10T19:43:03.282Z,68.35
2023-05-10T19:45:30.066Z,68.80
2023-05-10T19:47:56.628Z,68.68
2023-05-10T19:50:23.299Z,68.41
2023-05-10T19:52:50.627Z,68.23
2023-05-10T19:55:27.055Z,68.46
2023-05-10T19:57:53.712Z,68.57
2023-05-10T20:00:20.338Z,69.17
2023-05-10T20:02:46.971Z,69.69
2023-05-10T20:05:13.585Z,69.50
2023-05-10T20:07:40.166Z,70.10
2023-05-10T20:10:07.941Z,70.22
2023-05-10T20:12:35.938Z,70.30
2023-05-10T20:15:02.705Z,70.02
2023-05-10T20:17:29.580Z,69.91
2023-05-10T20:19:56.189Z,70.12
2023-05-10T20:22:22.732Z,70.02
2023-05-10T20:24:49.325Z,69.92
2023-05-10T20:27:16.969Z,69.66
2023-05-10T20:29:44.889Z,69.67
2023-05-10T20:32:11.443Z,69.21
2023-05-10T20:34:37.995Z,69.85
2023-05-10T20:37:04.551Z,69.67
2023-05-10T20:39:31.128Z,69.43
2023-05-10T20:41:57.699Z,69.55
2023-05-10T20:44:24.332Z,70.07
2023-05-10T20:46:53.025Z,70.70
2023-05-10T20:49:19.596Z,70.82
2023-05-10T20:51:56.494Z,70.54
2023-05-10T20:54:23.128Z,70.26
2023-05-10T20:56:49.839Z,70.56
2023-05-10T20:59:16.459Z,70.55
2023-05-10T21:01:43.041Z,70.19
2023-05-10T21:04:11.061Z,70.14
2023-05-10T21:06:38.308Z,70.22
2023-05-10T21:09:05.025Z,69.72
2023-05-10T21:11:35.942Z,69.78
2023-05-10T21:14:02.776Z,70.79
2023-05-10T21:16:29.386Z,70.62
2023-05-10T21:18:56.018Z,70.10
2023-05-10T21:21:24.012Z,71.06
2023-05-10T21:23:50.576Z,70.29
2023-05-10T21:26:17.159Z,70.19
2023-05-10T21:28:44.305Z,70.48
2023-05-10T21:31:11.001Z,70.33
2023-05-10T21:33:37.574Z,69.71
2023-05-10T21:36:04.895Z,69.67
2023-05-10T21:38:33.291Z,70.00
2023-05-10T21:41:15.470Z,70.10
2023-05-10T21:43:42.649Z,70.34
2023-05-10T21:46:09.428Z,70.38
2023-05-10T21:48:36.337Z,70.61
2023-05-10T21:51:03.033Z,70.69
2023-05-10T21:53:29.553Z,70.19
2023-05-10T21:55:57.535Z,70.10
2023-05-10T21:58:24.211Z,70.44
2023-05-10T22:00:51.015Z,70.32
2023-05-10T22:03:18.321Z,69.86
2023-05-10T22:05:45.038Z,70.27
2023-05-10T22:08:11.678Z,70.14
2023-05-10T22:10:38.327Z,70.42
2023-05-10T22:13:06.514Z,70.75
2023-05-10T22:15:35.545Z,70.81
2023-05-10T22:18:03.064Z,70.85
2023-05-10T22:20:29.807Z,70.27
2023-05-10T22:22:56.372Z,70.32
2023-05-10T22:25:22.911Z,70.58
2023-05-10T22:30:32.783Z,70.57
2023-05-10T22:32:59.724Z,70.71
2023-05-10T22:35:26.346Z,70.77
2023-05-10T22:37:52.917Z,70.70
2023-05-10T22:40:19.635Z,70.58
2023-05-10T22:42:46.279Z,70.13
2023-05-10T22:45:12.873Z,69.94
2023-05-10T22:47:41.369Z,69.77
2023-05-10T22:50:09.200Z,70.01
2023-05-10T22:52:35.752Z,69.93
2023-05-10T22:55:02.274Z,69.59
2023-05-10T22:57:29.378Z,69.54
2023-05-10T22:59:55.931Z,69.58
2023-05-10T23:02:22.623Z,70.04
2023-05-10T23:04:50.793Z,69.83
2023-05-10T23:07:17.333Z,70.33
2023-05-10T23:09:43.888Z,69.99
2023-05-10T23:12:10.469Z,69.94
2023-05-10T23:14:37.003Z,70.32
2023-05-10T23:17:03.552Z,70.37
2023-05-10T23:19:30.162Z,70.60
2023-05-10T23:21:58.083Z,70.84
2023-05-10T23:24:24.623Z,70.51
2023-05-10T23:26:51.453Z,70.75
2023-05-10T23:29:18.136Z,70.36
2023-05-10T23:31:44.713Z,69.88
2023-05-10T23:34:11.391Z,70.18
2023-05-10T23:36:38.061Z,70.31
2023-05-10T23:39:06.608Z,70.86
2023-05-10T23:41:33.158Z,70.96
2023-05-10T23:43:59.881Z,70.76
2023-05-10T23:46:26.516Z,70.62
2023-05-10T23:48:53.299Z,71.05
2023-05-10T23:51:19.847Z,71.22
2023-05-10T23:53:46.436Z,71.43
2023-05-10T23:56:14.496Z,70.61
2023-05-10T23:58:41.047Z,71.13
